Time;durP1;ratioP1;P1;durP2;ratioP2;P2;SDS_P1;SDS_P2;PMS_P1;PMS_P2;Temp;Humidity;BMP_temperature;BMP_pressure;BME280_temperature;BME280_humidity;BME280_pressure;Samples;Min_cycle;Max_cycle;Signal;HPM_P1;HPM_P2
2022/09/14 00:01:46;;;;;;;9.57;1.67;;;20.70;88.40;;;;;;4903681;29;20037;-96
2022/09/14 00:04:23;;;;;;;3.83;1.27;;;20.60;88.20;;;;;;4894437;29;20031;-95
2022/09/14 00:06:52;;;;;;;7.30;1.80;;;20.60;88.20;;;;;;4892570;29;20033;-95
2022/09/14 00:09:24;;;;;;;6.03;1.85;;;20.60;88.30;;;;;;4876808;29;20034;-96
2022/09/14 00:11:53;;;;;;;7.32;1.50;;;20.60;88.50;;;;;;4877644;29;20032;-95
2022/09/14 00:14:22;;;;;;;7.80;1.70;;;20.60;88.80;;;;;;4890422;29;20045;-96
2022/09/14 00:16:53;;;;;;;5.32;1.33;;;20.50;89.00;;;;;;4890913;29;20033;-96
2022/09/14 00:19:31;;;;;;;7.30;1.38;;;20.50;89.00;;;;;;4892818;29;20073;-96
2022/09/14 00:22:00;;;;;;;6.57;2.45;;;20.50;89.00;;;;;;4891162;29;20020;-96
2022/09/14 00:24:29;;;;;;;4.85;1.23;;;20.50;89.30;;;;;;4890512;29;20114;-96
2022/09/14 00:26:56;;;;;;;5.22;1.33;;;20.50;89.30;;;;;;4893900;29;20029;-96
2022/09/14 00:29:25;;;;;;;6.65;1.60;;;20.50;89.40;;;;;;4892189;29;20401;-96
2022/09/14 00:31:53;;;;;;;6.40;1.50;;;20.40;89.40;;;;;;4877939;29;20085;-95
2022/09/14 00:34:25;;;;;;;6.55;1.40;;;20.40;89.30;;;;;;4900629;29;20025;-96
2022/09/14 00:36:58;;;;;;;6.05;1.33;;;20.40;89.30;;;;;;4904089;29;20020;-96
2022/09/14 00:39:26;;;;;;;4.50;1.52;;;20.40;89.40;;;;;;4889534;29;20033;-94
2022/09/14 00:41:55;;;;;;;8.40;1.83;;;20.40;89.60;;;;;;4966435;23;20067;-94
2022/09/14 00:44:24;;;;;;;5.78;1.27;;;20.40;89.60;;;;;;4905606;29;20062;-95
2022/09/14 00:46:53;;;;;;;8.35;1.75;;;20.40;89.60;;;;;;4921473;29;20028;-96
2022/09/14 00:49:28;;;;;;;8.85;1.73;;;20.30;89.70;;;;;;4921406;29;20044;-96
2022/09/14 00:52:11;;;;;;;4.30;1.50;;;20.30;89.90;;;;;;4916183;29;20024;-95
2022/09/14 00:55:13;;;;;;;4.72;1.60;;;20.30;90.10;;;;;;4914516;29;20461;-96
2022/09/14 00:57:47;;;;;;;5.10;1.23;;;20.30;90.20;;;;;;4897976;29;20029;-96
2022/09/14 01:00:18;;;;;;;8.07;1.52;;;20.30;90.20;;;;;;4911433;29;20036;-95
2022/09/14 01:03:20;;;;;;;;;;;;;;;;;;;;;
2022/09/14 01:06:05;;;;;;;8.43;1.63;;;20.20;90.20;;;;;;4911636;29;20096;-96
2022/09/14 01:08:44;;;;;;;5.38;1.52;;;20.20;90.30;;;;;;4911153;29;20025;-96
2022/09/14 01:11:22;;;;;;;6.28;1.98;;;20.20;90.30;;;;;;4911072;29;20052;-94
2022/09/14 01:14:10;;;;;;;7.15;1.58;;;20.10;90.30;;;;;;4908554;29;20036;-95
2022/09/14 01:16:46;;;;;;;7.60;1.95;;;20.20;90.40;;;;;;4909840;29;20028;-96
2022/09/14 01:19:40;;;;;;;6.60;1.50;;;20.10;90.70;;;;;;4894981;29;20048;-95
2022/09/14 01:22:16;;;;;;;6.93;2.17;;;20.10;90.50;;;;;;4885322;29;20044;-96
2022/09/14 01:25:32;;;;;;;;;;;;;;;;;;;;;
2022/09/14 01:28:02;;;;;;;5.80;1.58;;;20.10;90.50;;;;;;4907480;29;20076;-96
2022/09/14 01:30:38;;;;;;;4.43;1.38;;;20.00;90.50;;;;;;4911451;29;20021;-96
2022/09/14 01:33:46;;;;;;;7.35;1.52;;;20.00;90.40;;;;;;4912545;29;20028;-96
2022/09/14 01:36:17;;;;;;;6.07;1.35;;;20.00;90.40;;;;;;4909332;29;20037;-96
2022/09/14 01:38:50;;;;;;;11.82;1.60;;;19.90;90.40;;;;;;4894333;29;20036;-96
2022/09/14 01:41:22;;;;;;;7.22;1.30;;;19.90;90.50;;;;;;4910425;29;20060;-96
2022/09/14 01:44:09;;;;;;;6.30;1.75;;;19.90;90.50;;;;;;4911717;29;20041;-96
2022/09/14 01:47:12;;;;;;;;;;;;;;;;;;;;;
2022/09/14 01:49:43;;;;;;;6.70;1.70;;;19.90;90.50;;;;;;4912164;29;20055;-96
2022/09/14 01:52:16;;;;;;;4.15;1.48;;;19.90;90.50;;;;;;4908552;29;20024;-95
2022/09/14 01:54:46;;;;;;;6.32;1.30;;;19.80;90.40;;;;;;4912097;29;20029;-96
2022/09/14 01:57:28;;;;;;;9.13;1.50;;;19.90;90.50;;;;;;4914384;29;20009;-96
2022/09/14 02:00:08;;;;;;;3.47;1.08;;;19.80;90.50;;;;;;4897840;29;20036;-96
2022/09/14 02:03:28;;;;;;;5.00;1.15;;;19.80;90.50;;;;;;4912296;29;20028;-96
2022/09/14 02:06:26;;;;;;;7.20;1.25;;;19.80;90.60;;;;;;4898423;29;20093;-96
2022/09/14 02:08:54;;;;;;;6.50;1.20;;;19.80;90.60;;;;;;4919432;29;20064;-96
2022/09/14 02:11:20;;;;;;;11.98;1.77;;;19.70;90.60;;;;;;4895769;29;20032;-96
2022/09/14 02:13:48;;;;;;;5.50;1.45;;;19.70;90.70;;;;;;4895765;29;20070;-96
2022/09/14 02:16:16;;;;;;;5.55;1.30;;;19.80;90.80;;;;;;4895686;29;20051;-96
2022/09/14 02:18:51;;;;;;;6.80;1.30;;;19.70;90.80;;;;;;4912042;29;20025;-96
2022/09/14 02:21:21;;;;;;;5.72;1.23;;;19.70;90.80;;;;;;4896596;29;20051;-96
2022/09/14 02:24:17;;;;;;;2.70;0.88;;;19.70;90.80;;;;;;4910894;29;20029;-96
2022/09/14 02:27:00;;;;;;;4.28;1.20;;;19.70;90.90;;;;;;4894782;29;20036;-96
2022/09/14 02:29:28;;;;;;;5.72;1.48;;;19.70;91.00;;;;;;4900280;29;20024;-96
2022/09/14 02:32:25;;;;;;;6.22;1.00;;;19.70;91.00;;;;;;4883938;29;20032;-96
2022/09/14 02:35:11;;;;;;;4.22;1.23;;;19.60;91.00;;;;;;4916107;29;20088;-96
2022/09/14 02:37:58;;;;;;;6.10;1.10;;;19.60;91.10;;;;;;4915801;29;20029;-96
2022/09/14 02:40:46;;;;;;;2.58;0.85;;;19.60;91.20;;;;;;4916361;29;20028;-96
2022/09/14 02:43:33;;;;;;;4.95;1.30;;;19.60;91.10;;;;;;4920252;29;20055;-96
2022/09/14 02:46:35;;;;;;;5.18;0.85;;;19.60;91.20;;;;;;4885279;29;20104;-96
2022/09/14 02:49:15;;;;;;;5.88;1.20;;;19.60;91.40;;;;;;4907133;29;20048;-96
2022/09/14 02:52:19;;;;;;;4.38;1.00;;;19.50;91.50;;;;;;4951767;23;20044;-95
2022/09/14 02:54:57;;;;;;;4.50;0.95;;;19.50;91.70;;;;;;4920152;29;20113;-94
2022/09/14 02:57:24;;;;;;;3.83;1.00;;;19.50;91.80;;;;;;4913616;29;20029;-95
2022/09/14 02:59:57;;;;;;;4.70;1.30;;;19.50;91.90;;;;;;4898729;29;20040;-96
2022/09/14 03:02:25;;;;;;;4.95;1.30;;;19.50;92.00;;;;;;4887620;29;20033;-95
2022/09/14 03:05:30;;;;;;;;;;;;;;;;;;;;;
2022/09/14 03:09:01;;;;;;;;;;;;;;;;;;;;;
2022/09/14 03:12:04;;;;;;;3.17;0.82;;;19.40;92.60;;;;;;4918672;29;20064;-96
2022/09/14 03:33:16;;;;;;;;;;;;;;;;;;;;;
2022/09/14 04:24:13;;;;;;;6.95;1.42;;;18.80;94.60;;;;;;5942703;23;20023;31
2022/09/14 04:29:51;;;;;;;7.07;1.40;;;18.70;94.70;;;;;;5033692;23;20044;-96
2022/09/14 09:11:56;;;;;;;7.65;3.03;;;17.90;99.90;;;;;;5540717;23;20031;-91
2022/09/14 10:45:06;;;;;;;7.18;3.35;;;17.80;99.90;;;;;;4046354;23;20224;-91
2022/09/14 10:48:18;;;;;;;8.35;3.95;;;17.80;99.90;;;;;;5278042;23;20105;31
2022/09/14 11:04:56;;;;;;;;;;;;;;;;;;;;;
2022/09/14 11:17:00;;;;;;;9.70;3.88;;;17.70;99.90;;;;;;2923831;23;20332;-89
2022/09/14 11:38:17;;;;;;;;;;;;;;;;;;;;;
2022/09/14 11:41:12;;;;;;;10.80;3.90;;;17.90;99.90;;;;;;4902762;29;20061;-96
2022/09/14 11:44:20;;;;;;;;;;;;;;;;;;;;;
2022/09/14 11:47:24;;;;;;;;;;;;;;;;;;;;;
2022/09/14 11:55:16;;;;;;;7.50;3.75;;;18.00;99.90;;;;;;5008564;23;20060;-96
2022/09/14 12:01:27;;;;;;;8.98;3.80;;;18.00;99.90;;;;;;4901611;29;20057;-96
2022/09/14 12:03:55;;;;;;;6.45;3.50;;;18.00;99.90;;;;;;4903923;29;20028;-96
2022/09/14 12:06:53;;;;;;;;;;;;;;;;;;;;;
2022/09/14 12:10:07;;;;;;;7.15;3.13;;;18.00;99.90;;;;;;4902112;29;20056;-96
2022/09/14 12:13:10;;;;;;;7.22;3.25;;;18.10;99.90;;;;;;4898940;29;20062;-96
2022/09/14 12:16:25;;;;;;;6.60;3.60;;;18.10;99.90;;;;;;4838577;29;20040;-96
2022/09/14 12:19:13;;;;;;;7.53;3.40;;;18.10;99.90;;;;;;4900649;29;20033;-96
2022/09/14 12:22:04;;;;;;;7.05;3.85;;;18.20;99.90;;;;;;4901984;29;20085;-96
2022/09/14 12:24:57;;;;;;;9.65;4.03;;;18.10;99.90;;;;;;4876501;29;20041;-96
2022/09/14 12:27:34;;;;;;;;;;;;;;;;;;;;;
2022/09/14 12:33:35;;;;;;;9.90;4.40;;;18.20;99.90;;;;;;4901346;29;20048;-96
2022/09/14 12:36:36;;;;;;;11.35;5.03;;;18.20;99.90;;;;;;4898661;29;20065;-96
2022/09/14 12:39:40;;;;;;;6.95;4.60;;;18.20;99.90;;;;;;4964500;23;20033;-96
2022/09/14 12:42:31;;;;;;;10.05;4.22;;;18.30;99.90;;;;;;4875488;29;20074;-96
2022/09/14 12:45:37;;;;;;;7.28;3.80;;;18.30;99.90;;;;;;4884873;29;20056;-96
2022/09/14 12:48:35;;;;;;;8.10;4.05;;;18.20;99.90;;;;;;4884169;29;20098;-96
2022/09/14 12:51:16;;;;;;;6.60;3.35;;;18.30;99.90;;;;;;4883465;29;20060;-96
2022/09/14 12:54:14;;;;;;;10.02;3.95;;;18.30;99.90;;;;;;4868640;29;20478;-96
2022/09/14 12:57:08;;;;;;;7.93;3.55;;;18.30;99.90;;;;;;4884286;29;20024;-96
2022/09/14 13:00:18;;;;;;;4.93;3.17;;;18.30;99.90;;;;;;4883283;29;20025;-96
2022/09/14 13:07:01;;;;;;;6.78;3.47;;;18.40;99.90;;;;;;4860729;29;20034;-96
2022/09/14 13:09:34;;;;;;;6.60;3.72;;;18.40;99.90;;;;;;4845020;29;20034;-96
2022/09/14 13:12:14;;;;;;;6.18;3.63;;;18.40;99.90;;;;;;4845109;29;20030;-96
2022/09/14 13:15:09;;;;;;;7.60;3.58;;;18.40;99.90;;;;;;4860456;29;20034;-96
2022/09/14 13:17:54;;;;;;;6.22;3.08;;;18.40;99.90;;;;;;4858867;29;20072;-95
2022/09/14 13:20:39;;;;;;;10.00;4.22;;;18.50;99.90;;;;;;4857708;29;20062;-96
2022/09/14 13:23:32;;;;;;;7.85;3.63;;;18.50;99.90;;;;;;4881247;29;20009;-96
2022/09/14 13:26:25;;;;;;;7.78;3.80;;;18.50;99.90;;;;;;4885687;29;20029;-96
2022/09/14 13:31:57;;;;;;;7.95;3.10;;;18.50;99.90;;;;;;4877218;29;20029;-96
2022/09/14 13:34:39;;;;;;;7.75;3.33;;;18.60;99.90;;;;;;4876908;29;20037;-96
2022/09/14 13:37:06;;;;;;;9.98;3.65;;;18.60;99.90;;;;;;4878490;29;20037;-96
2022/09/14 13:39:44;;;;;;;7.93;3.70;;;18.60;99.90;;;;;;4882169;29;20040;-96
2022/09/14 13:42:16;;;;;;;6.35;3.10;;;18.60;99.90;;;;;;4931931;29;20036;-96
2022/09/14 13:45:03;;;;;;;8.65;3.35;;;18.60;99.90;;;;;;4902574;29;20477;-96
2022/09/14 13:48:05;;;;;;;6.80;3.05;;;18.60;99.90;;;;;;4915888;29;20025;-96
2022/09/14 13:50:35;;;;;;;6.82;2.95;;;18.70;99.90;;;;;;4901243;29;20043;-96
2022/09/14 13:53:34;;;;;;;;;;;;;;;;;;;;;
2022/09/14 13:56:41;;;;;;;8.10;2.92;;;18.70;99.90;;;;;;5072169;23;20082;-96
2022/09/14 13:59:40;;;;;;;5.82;2.25;;;18.70;99.90;;;;;;4849205;29;20045;-96
2022/09/14 14:02:32;;;;;;;7.70;1.90;;;18.80;99.90;;;;;;4920079;29;20129;-96
2022/09/14 14:05:01;;;;;;;9.55;2.40;;;18.80;99.90;;;;;;4913261;29;20108;-96
2022/09/14 14:07:35;;;;;;;7.28;2.45;;;18.80;99.90;;;;;;4916180;29;20036;-96
2022/09/14 14:10:10;;;;;;;4.78;2.00;;;18.90;99.90;;;;;;4917209;29;20036;-96
2022/09/14 14:12:52;;;;;;;6.25;1.60;;;19.00;99.90;;;;;;4916099;29;20092;-96
2022/09/14 14:15:36;;;;;;;;;;;;;;;;;;;;;
2022/09/14 14:21:37;;;;;;;8.77;1.73;;;19.00;99.90;;;;;;5108582;23;20048;-96
2022/09/14 14:24:36;;;;;;;4.63;1.40;;;19.00;99.90;;;;;;4923958;29;20044;-96
2022/09/14 14:27:07;;;;;;;6.53;1.80;;;19.00;99.90;;;;;;4891100;29;20028;-96
2022/09/14 14:29:42;;;;;;;4.93;1.20;;;19.10;99.90;;;;;;4921959;29;20053;-95
2022/09/14 14:32:13;;;;;;;6.43;1.58;;;19.10;99.90;;;;;;4921306;29;20020;-96
2022/09/14 14:35:02;;;;;;;5.50;1.50;;;19.10;99.90;;;;;;4924552;29;20028;-96
2022/09/14 14:37:36;;;;;;;9.63;2.28;;;19.10;99.90;;;;;;4901492;29;20115;-96
2022/09/14 14:40:38;;;;;;;6.40;1.50;;;19.10;99.90;;;;;;4923471;29;20036;-96
2022/09/14 14:43:23;;;;;;;4.80;1.42;;;19.10;99.90;;;;;;4941921;29;20032;-96
2022/09/14 14:46:03;;;;;;;4.88;1.65;;;19.10;99.90;;;;;;4921917;29;20115;-96
2022/09/14 14:51:49;;;;;;;5.38;1.95;;;19.20;99.90;;;;;;4940080;29;20027;-96
2022/09/14 14:54:46;;;;;;;;;;;;;;;;;;;;;
2022/09/14 14:57:41;;;;;;;6.93;1.92;;;19.20;99.80;;;;;;4915254;29;20068;-96
2022/09/14 15:00:25;;;;;;;5.18;1.73;;;19.20;99.60;;;;;;4940135;29;20032;-96
2022/09/14 15:03:16;;;;;;;;;;;;;;;;;;;;;
2022/09/14 15:06:44;;;;;;;;;;;;;;;;;;;;;
2022/09/14 15:13:04;;;;;;;5.32;1.65;;;19.30;99.50;;;;;;4932973;29;20029;-96
2022/09/14 15:16:08;;;;;;;;;;;;;;;;;;;;;
2022/09/14 15:19:00;;;;;;;8.38;2.00;;;19.40;99.50;;;;;;4924609;29;20067;-96
2022/09/14 15:21:35;;;;;;;7.75;2.00;;;19.40;99.40;;;;;;4923547;29;20101;-96
2022/09/14 15:24:11;;;;;;;7.57;2.38;;;19.40;99.30;;;;;;4954236;23;5624992;-95
2022/09/14 15:29:31;;;;;;;;;;;19.40;99.20;;;;;;4923326;29;20077;-96
2022/09/14 15:32:24;;;;;;;5.22;2.15;;;19.40;99.10;;;;;;4907124;29;19906;-94
2022/09/14 15:34:55;;;;;;;7.82;2.38;;;19.40;99.10;;;;;;5115777;23;20052;-94
2022/09/14 15:37:25;;;;;;;7.82;2.97;;;19.40;99.00;;;;;;5229318;23;20044;-96
2022/09/14 15:42:49;;;;;;;9.02;2.83;;;19.40;98.30;;;;;;4900876;29;20041;-96
2022/09/14 15:45:41;;;;;;;13.45;3.25;;;19.40;98.10;;;;;;4882064;29;20053;-96
2022/09/14 15:48:39;;;;;;;7.13;2.67;;;19.40;98.10;;;;;;4882385;29;20029;-96
2022/09/14 15:51:19;;;;;;;6.13;2.30;;;19.40;98.10;;;;;;4883804;29;20025;-96
2022/09/14 15:56:49;;;;;;;6.40;2.10;;;19.40;98.20;;;;;;4885688;29;20041;-96
2022/09/14 16:05:12;;;;;;;6.38;2.10;;;19.40;98.00;;;;;;5067780;23;20057;-96
2022/09/14 16:10:38;;;;;;;6.07;2.33;;;19.40;97.80;;;;;;5097216;23;20048;-96
2022/09/14 16:19:42;;;;;;;7.63;2.45;;;19.30;97.40;;;;;;5171852;23;20085;-96
2022/09/14 16:22:26;;;;;;;;;;;;;;;;;;;;;
2022/09/14 16:25:20;;;;;;;;;;;;;;;;;;;;;
2022/09/14 16:28:19;;;;;;;;;;;;;;;;;;;;;
2022/09/14 16:31:31;;;;;;;8.93;2.70;;;19.30;97.70;;;;;;4907588;29;20063;-96
2022/09/14 16:34:10;;;;;;;7.28;2.80;;;19.30;97.80;;;;;;4906149;29;20115;-95
2022/09/14 16:36:49;;;;;;;7.15;2.53;;;19.30;97.90;;;;;;4902956;29;20032;-96
2022/09/14 16:40:00;;;;;;;7.20;2.75;;;19.30;97.90;;;;;;4887590;29;20033;-96
2022/09/14 16:42:48;;;;;;;7.40;3.03;;;19.20;98.00;;;;;;4919298;29;20028;-96
2022/09/14 16:45:40;;;;;;;;;;;;;;;;;;;;;
2022/09/14 16:53:58;;;;;;;8.18;3.17;;;19.20;98.20;;;;;;5065641;23;20087;-96
2022/09/14 16:59:57;;;;;;;6.97;2.65;;;19.10;98.20;;;;;;5042527;23;20336;-94
2022/09/14 17:02:44;;;;;;;;;;;;;;;;;;;;;
2022/09/14 17:05:29;;;;;;;;;;;;;;;;;;;;;
2022/09/14 17:08:00;;;;;;;5.63;2.38;;;19.10;98.60;;;;;;5171337;23;20051;-94
2022/09/14 17:13:15;;;;;;;6.93;2.92;;;19.10;98.90;;;;;;5336397;23;19922;-96
2022/09/14 17:16:00;;;;;;;7.88;2.85;;;19.10;98.90;;;;;;4922908;29;20032;-96
2022/09/14 17:18:59;;;;;;;6.53;2.85;;;19.10;98.90;;;;;;4907918;29;20020;-96
2022/09/14 17:21:32;;;;;;;7.65;2.58;;;19.10;99.00;;;;;;4917155;29;20080;-96
2022/09/14 17:24:17;;;;;;;8.63;2.45;;;19.10;99.10;;;;;;4937106;29;20028;-93
2022/09/14 17:26:47;;;;;;;7.60;2.60;;;19.10;99.10;;;;;;4919485;29;20040;-96
2022/09/14 17:29:30;;;;;;;9.00;2.78;;;19.10;99.10;;;;;;4919582;29;20056;-96
2022/09/14 17:32:25;;;;;;;6.43;3.10;;;19.10;99.00;;;;;;4921542;29;20043;-96
2022/09/14 17:35:30;;;;;;;7.20;2.90;;;19.00;98.90;;;;;;4916404;29;20040;-96
2022/09/14 17:38:08;;;;;;;8.32;3.20;;;19.00;98.90;;;;;;4898804;29;20043;-96
2022/09/14 17:40:59;;;;;;;9.88;3.47;;;19.00;98.90;;;;;;4920781;29;20095;-96
2022/09/14 17:43:49;;;;;;;9.77;2.90;;;18.90;99.10;;;;;;4919948;29;20048;-96
2022/09/14 17:46:26;;;;;;;7.30;3.10;;;18.90;99.20;;;;;;4919865;29;20012;-96
2022/09/14 17:49:09;;;;;;;7.65;3.22;;;18.90;99.20;;;;;;4892610;29;20047;-96
2022/09/14 17:52:11;;;;;;;7.65;3.35;;;18.90;99.30;;;;;;4908120;29;20023;-96
2022/09/14 17:54:57;;;;;;;9.18;3.45;;;18.90;99.30;;;;;;4881904;29;20046;-96
2022/09/14 17:57:26;;;;;;;7.15;3.20;;;18.80;99.30;;;;;;4943974;23;20124;-96
2022/09/14 17:59:56;;;;;;;7.63;3.45;;;18.80;99.40;;;;;;4914964;29;20041;-96
2022/09/14 18:02:24;;;;;;;6.50;3.20;;;18.80;99.40;;;;;;4914252;29;20068;-96
2022/09/14 18:05:01;;;;;;;8.65;3.50;;;18.80;99.40;;;;;;4917787;29;20031;-96
2022/09/14 18:07:48;;;;;;;7.25;3.53;;;18.80;99.70;;;;;;4901812;29;20017;-96
2022/09/14 18:10:17;;;;;;;8.35;3.25;;;18.80;99.50;;;;;;4912971;29;20029;-96
2022/09/14 18:12:56;;;;;;;;;;;;;;;;;;;;;
2022/09/14 18:18:41;;;;;;;;;;;;;;;;;;;;;
2022/09/14 18:21:20;;;;;;;10.35;4.32;;;18.80;99.70;;;;;;4911463;29;20088;-94
2022/09/14 18:24:08;;;;;;;;;;;;;;;;;;;;;
2022/09/14 18:32:38;;;;;;;;;;;18.80;99.80;;;;;;5121130;23;20112;-96
2022/09/14 18:41:28;;;;;;;9.73;3.30;;;18.70;99.90;;;;;;5118048;23;20067;-96
2022/09/14 18:44:00;;;;;;;6.78;2.67;;;18.70;99.90;;;;;;4941409;29;20032;-96
2022/09/14 18:54:17;;;;;;;8.48;3.47;;;18.70;99.90;;;;;;4936931;29;20056;-96
2022/09/14 18:56:47;;;;;;;8.43;3.35;;;18.70;99.90;;;;;;4938495;29;20078;-96
2022/09/14 19:02:31;;;;;;;;;;;;;;;;;;;;;
2022/09/14 19:05:03;;;;;;;11.20;3.58;;;18.60;99.90;;;;;;4940021;29;20055;-95
2022/09/14 19:07:34;;;;;;;8.27;3.28;;;18.60;99.90;;;;;;4940775;29;20035;-95
2022/09/14 19:10:15;;;;;;;9.73;3.70;;;18.60;99.90;;;;;;4940031;29;20027;-96
2022/09/14 19:12:46;;;;;;;6.75;3.53;;;18.50;99.90;;;;;;4943862;29;20165;-95
2022/09/14 19:15:25;;;;;;;8.30;3.80;;;18.50;99.90;;;;;;4925192;29;20044;-95
2022/09/14 19:17:51;;;;;;;7.63;3.83;;;18.50;99.90;;;;;;4941092;29;20028;-95
2022/09/14 19:20:21;;;;;;;7.60;3.60;;;18.50;99.90;;;;;;4937703;29;20023;-94
2022/09/14 19:23:16;;;;;;;8.80;3.93;;;18.50;99.90;;;;;;4940388;29;20009;-96
2022/09/14 19:25:47;;;;;;;9.70;3.58;;;18.50;99.90;;;;;;4922717;29;20048;-95
2022/09/14 19:28:16;;;;;;;10.55;4.15;;;18.50;99.90;;;;;;4940281;29;20087;-96
2022/09/14 19:31:39;;;;;;;;;;;;;;;;;;;;;
2022/09/14 19:34:10;;;;;;;8.82;3.90;;;18.40;99.90;;;;;;5178572;23;20089;-96
2022/09/14 19:36:43;;;;;;;8.75;3.88;;;18.40;99.90;;;;;;4922836;29;20087;-96
2022/09/14 19:39:43;;;;;;;;;;;;;;;;;;;;;
2022/09/14 19:42:39;;;;;;;9.65;4.72;;;18.40;99.90;;;;;;4941638;29;20032;-96
2022/09/14 19:45:30;;;;;;;10.98;4.38;;;18.40;99.90;;;;;;4902062;29;20040;-96
2022/09/14 20:07:32;;;;;;;10.50;5.70;;;18.20;99.90;;;;;;4898414;29;20068;-95
2022/09/14 20:09:58;;;;;;;12.77;5.22;;;18.20;99.90;;;;;;4886329;29;20017;-95
2022/09/14 20:12:35;;;;;;;9.43;5.28;;;18.20;99.90;;;;;;5113737;23;20089;-95
2022/09/14 20:15:12;;;;;;;11.52;5.38;;;18.20;99.90;;;;;;4914766;29;20049;-96
2022/09/14 20:17:38;;;;;;;11.60;6.10;;;18.20;99.90;;;;;;4909567;29;20033;-94
2022/09/14 20:20:20;;;;;;;;;;;;;;;;;;;;;
2022/09/14 20:22:53;;;;;;;10.98;6.03;;;18.20;99.90;;;;;;4896054;29;20044;-96
2022/09/14 20:25:35;;;;;;;;;;;;;;;;;;;;;
2022/09/14 20:28:03;;;;;;;10.45;6.85;;;18.10;99.90;;;;;;4896312;29;20079;-96
2022/09/14 20:30:37;;;;;;;8.80;5.72;;;18.10;99.90;;;;;;4911522;29;20021;-95
2022/09/14 20:33:29;;;;;;;11.15;6.72;;;18.10;99.90;;;;;;4882532;29;20033;-96
2022/09/14 20:36:02;;;;;;;10.40;6.45;;;18.10;99.90;;;;;;4915791;29;20033;-96
2022/09/14 20:38:39;;;;;;;8.90;6.57;;;18.00;99.90;;;;;;4914832;29;20029;-95
2022/09/14 20:41:10;;;;;;;8.07;6.05;;;18.00;99.90;;;;;;4884821;29;20081;-96
2022/09/14 20:44:07;;;;;;;9.98;6.22;;;18.00;99.90;;;;;;4916373;29;20093;-96
2022/09/14 20:46:59;;;;;;;9.65;7.55;;;18.00;99.90;;;;;;4915154;29;20108;-96
2022/09/14 20:49:42;;;;;;;12.20;7.60;;;18.00;99.90;;;;;;4900446;29;20036;-91
2022/09/14 20:52:17;;;;;;;12.80;8.07;;;18.00;99.90;;;;;;4900671;29;20029;-95
2022/09/14 20:54:49;;;;;;;15.30;8.25;;;17.90;99.90;;;;;;4915404;29;20068;-95
2022/09/14 20:57:27;;;;;;;13.95;8.32;;;17.90;99.90;;;;;;4884821;29;20048;-96
2022/09/14 20:59:53;;;;;;;13.50;8.00;;;17.90;99.90;;;;;;4898643;29;20040;-95
2022/09/14 21:02:25;;;;;;;10.20;7.78;;;17.90;99.90;;;;;;4915770;29;20029;-96
2022/09/14 21:05:12;;;;;;;14.88;7.97;;;17.90;99.90;;;;;;4901077;29;20029;-95
2022/09/14 21:07:40;;;;;;;13.68;8.23;;;17.90;99.90;;;;;;4898834;29;20491;-95
2022/09/14 21:10:22;;;;;;;13.95;8.65;;;17.90;99.90;;;;;;4900425;29;20021;-96
2022/09/14 21:12:49;;;;;;;12.98;8.50;;;17.90;99.90;;;;;;4916065;29;20060;-95
2022/09/14 21:15:20;;;;;;;14.93;8.75;;;17.90;99.90;;;;;;4899654;29;20099;-96
2022/09/14 21:17:51;;;;;;;12.85;8.60;;;17.90;99.90;;;;;;4899024;29;20109;-96
2022/09/14 21:20:19;;;;;;;15.77;8.50;;;17.80;99.90;;;;;;4897767;29;20071;-96
2022/09/14 21:22:53;;;;;;;13.13;8.63;;;17.80;99.90;;;;;;4896227;29;20037;-96
2022/09/14 21:25:30;;;;;;;12.90;8.70;;;17.80;99.90;;;;;;4896422;29;20037;-96
2022/09/14 21:27:58;;;;;;;16.30;8.77;;;17.80;99.90;;;;;;4898245;29;20069;-96
2022/09/14 21:30:34;;;;;;;13.32;8.68;;;17.80;99.90;;;;;;4898604;29;20036;-96
2022/09/14 21:33:05;;;;;;;12.30;8.80;;;17.80;99.90;;;;;;4899583;29;20029;-96
2022/09/14 21:35:34;;;;;;;13.65;8.32;;;17.70;99.90;;;;;;4900645;29;20092;-93
2022/09/14 21:38:08;;;;;;;10.40;8.48;;;17.70;99.90;;;;;;4900791;29;20025;-96
2022/09/14 21:40:45;;;;;;;11.77;9.15;;;17.70;99.90;;;;;;4878783;29;20033;-95
2022/09/14 21:43:16;;;;;;;11.25;9.13;;;17.70;99.90;;;;;;4896798;29;20505;-96
2022/09/14 21:45:53;;;;;;;16.95;10.30;;;17.70;99.90;;;;;;4912407;29;20097;-96
2022/09/14 21:48:21;;;;;;;13.20;9.95;;;17.70;99.90;;;;;;4914207;29;20025;-96
2022/09/14 21:50:59;;;;;;;15.98;9.38;;;17.70;99.90;;;;;;4896881;29;20041;-96
2022/09/14 21:53:27;;;;;;;13.82;9.18;;;17.60;99.90;;;;;;4911385;29;20410;-96
2022/09/14 21:55:56;;;;;;;13.25;8.73;;;17.60;99.90;;;;;;4898510;29;20048;-96
2022/09/14 21:58:22;;;;;;;12.98;9.30;;;17.60;99.90;;;;;;4914881;29;20037;-96
2022/09/14 22:00:59;;;;;;;12.73;9.32;;;17.60;99.90;;;;;;4899892;29;20024;-96
2022/09/14 22:03:31;;;;;;;14.10;9.07;;;17.70;99.90;;;;;;4914649;29;20033;-96
2022/09/14 22:06:17;;;;;;;;;;;;;;;;;;;;;
2022/09/14 22:08:57;;;;;;;;;;;;;;;;;;;;;
2022/09/14 22:11:28;;;;;;;13.77;9.05;;;17.60;99.90;;;;;;4906065;29;20055;-95
2022/09/14 22:14:03;;;;;;;14.35;9.50;;;17.60;99.90;;;;;;4938179;29;20020;-96
2022/09/14 22:16:53;;;;;;;13.20;8.75;;;17.60;99.90;;;;;;4921329;29;20032;-96
2022/09/14 22:19:25;;;;;;;11.85;8.75;;;17.60;99.90;;;;;;4921280;29;20040;-96
2022/09/14 22:22:00;;;;;;;14.75;9.25;;;17.60;99.90;;;;;;4921710;29;20043;-96
2022/09/14 22:27:06;;;;;;;14.90;8.93;;;17.50;99.90;;;;;;5438650;23;20065;-96
2022/09/14 22:29:32;;;;;;;14.38;9.20;;;17.50;99.90;;;;;;4902577;29;20113;-95
2022/09/14 22:32:00;;;;;;;14.48;8.88;;;17.50;99.90;;;;;;4899081;29;20043;-95
2022/09/14 22:34:27;;;;;;;14.45;8.90;;;17.50;99.90;;;;;;4901369;29;20020;-96
2022/09/14 22:37:01;;;;;;;18.60;9.02;;;17.50;99.90;;;;;;4916177;29;20028;-95
2022/09/14 22:39:30;;;;;;;12.27;8.10;;;17.40;99.90;;;;;;4902322;29;20029;-96
2022/09/14 22:41:59;;;;;;;10.43;8.10;;;17.40;99.90;;;;;;4885862;29;20045;-95
2022/09/14 22:44:44;;;;;;;13.32;8.60;;;17.40;99.90;;;;;;4904587;29;20036;-95
2022/09/14 22:47:25;;;;;;;11.38;8.10;;;17.30;99.90;;;;;;5225446;23;20051;-92
2022/09/14 22:50:02;;;;;;;14.02;8.32;;;17.30;99.90;;;;;;4929052;29;20008;-90
2022/09/14 22:52:43;;;;;;;11.98;8.13;;;17.30;99.90;;;;;;4929654;29;20015;-90
2022/09/14 22:55:11;;;;;;;13.32;8.00;;;17.20;99.90;;;;;;4915085;29;20016;-91
2022/09/14 23:02:49;;;;;;;13.55;8.65;;;17.20;99.90;;;;;;4902354;29;20053;-96
2022/09/14 23:05:18;;;;;;;11.68;7.85;;;17.10;99.90;;;;;;4888069;29;20033;-96
2022/09/14 23:07:49;;;;;;;13.30;8.75;;;17.10;99.90;;;;;;5301913;23;20274;-92
2022/09/14 23:10:26;;;;;;;16.83;9.55;;;17.10;99.90;;;;;;4923442;29;20036;-96
2022/09/14 23:12:55;;;;;;;11.07;8.95;;;17.10;99.90;;;;;;4907285;29;20036;-95
2022/09/14 23:15:23;;;;;;;12.02;9.02;;;17.10;99.90;;;;;;4919422;29;20032;-96
2022/09/14 23:17:54;;;;;;;13.45;10.10;;;17.10;99.90;;;;;;4922333;29;20097;-96
2022/09/14 23:20:20;;;;;;;;;;;17.10;99.90;;;;;;4908413;29;20028;-96
2022/09/14 23:22:46;;;;;;;13.63;9.55;;;17.10;99.90;;;;;;4921724;29;19911;-96
2022/09/14 23:25:14;;;;;;;12.43;8.98;;;17.10;99.90;;;;;;4917179;29;20036;-96
2022/09/14 23:27:45;;;;;;;12.25;9.07;;;17.00;99.90;;;;;;4903116;29;20047;-96
2022/09/14 23:30:17;;;;;;;13.35;8.52;;;17.00;99.90;;;;;;4902484;29;20028;-96
2022/09/14 23:32:45;;;;;;;11.77;8.55;;;17.00;99.90;;;;;;4922370;29;20016;-93
2022/09/14 23:35:17;;;;;;;15.35;9.63;;;17.00;99.90;;;;;;4916553;29;20152;-94
2022/09/14 23:37:45;;;;;;;12.88;9.48;;;17.00;99.90;;;;;;4937550;29;20064;-91
2022/09/14 23:40:14;;;;;;;12.38;9.30;;;17.00;99.90;;;;;;4925208;29;20032;-96
2022/09/14 23:42:57;;;;;;;15.43;9.82;;;17.00;99.90;;;;;;4938319;29;20096;-96
2022/09/14 23:45:26;;;;;;;16.65;9.85;;;17.00;99.90;;;;;;4922742;29;20119;-96
2022/09/14 23:47:56;;;;;;;17.67;10.57;;;17.00;99.90;;;;;;4932462;29;20028;-96
2022/09/14 23:50:22;;;;;;;17.20;11.20;;;17.00;99.90;;;;;;4899990;29;20028;-96
2022/09/14 23:52:56;;;;;;;13.07;9.40;;;17.00;99.90;;;;;;4938181;29;20028;-96
2022/09/14 23:55:22;;;;;;;12.05;9.50;;;17.00;99.90;;;;;;4939846;29;20076;-96
2022/09/14 23:57:54;;;;;;;13.73;10.15;;;17.00;99.90;;;;;;4922439;29;20056;-94
